Time;durP1;ratioP1;P1;durP2;ratioP2;P2;SDS_P1;SDS_P2;PMS_P1;PMS_P2;Temp;Humidity;BMP_temperature;BMP_pressure;BME280_temperature;BME280_humidity;BME280_pressure;Samples;Min_cycle;Max_cycle;Signal;HPM_P1;HPM_P2
2023/01/19 00:04:06;;;;;;;9.75;5.85;;;;;;;6.29;65.34;98197.19;7685177;32;37911;-83
2023/01/19 00:08:22;;;;;;;11.95;5.80;;;;;;;6.41;65.18;98194.09;7684626;32;37133;-84
2023/01/19 00:12:38;;;;;;;9.52;6.05;;;;;;;6.39;65.27;98191.69;7684922;32;39335;-83
2023/01/19 00:16:54;;;;;;;10.20;5.75;;;;;;;6.19;65.96;98183.72;7684759;32;39901;-84
2023/01/19 00:21:13;;;;;;;8.75;5.55;;;;;;;6.34;65.45;98172.78;7684641;32;38481;-83
2023/01/19 00:25:29;;;;;;;8.90;5.40;;;;;;;6.46;65.00;98158.88;7684640;32;36729;-83
2023/01/19 00:29:45;;;;;;;8.73;5.82;;;;;;;6.36;65.02;98165.22;7684906;32;39070;-83
2023/01/19 00:34:03;;;;;;;8.18;5.68;;;;;;;6.13;65.85;98168.62;7684914;32;39648;-82
2023/01/19 00:38:19;;;;;;;8.73;5.25;;;;;;;6.23;65.11;98168.56;7684757;32;38549;-83
2023/01/19 00:42:47;;;;;;;8.18;5.18;;;;;;;6.27;64.99;98175.00;7684640;32;37718;-83
2023/01/19 00:47:04;;;;;;;8.38;5.37;;;;;;;6.26;64.84;98169.88;7684767;32;40868;-83
2023/01/19 00:51:20;;;;;;;8.13;5.50;;;;;;;6.00;65.98;98178.19;7684522;32;39982;-83
2023/01/19 00:55:36;;;;;;;7.40;5.05;;;;;;;5.67;66.71;98179.72;7684629;32;37785;-83
2023/01/19 00:59:53;;;;;;;8.20;5.40;;;;;;;5.90;65.91;98176.34;7684504;32;37874;-82
2023/01/19 01:04:11;;;;;;;8.30;4.93;;;;;;;6.01;65.73;98185.22;7684543;32;39484;-84
2023/01/19 01:08:27;;;;;;;8.93;4.87;;;;;;;5.86;66.15;98191.50;7683909;32;39928;-83
2023/01/19 01:12:43;;;;;;;8.95;5.22;;;;;;;5.87;65.49;98179.59;7684221;32;37881;-83
2023/01/19 01:17:13;;;;;;;6.40;4.50;;;;;;;5.74;66.12;98174.78;7684445;32;37013;-84
2023/01/19 01:21:30;;;;;;;10.18;4.62;;;;;;;6.11;64.72;98178.94;7684038;32;38981;-83
2023/01/19 01:25:46;;;;;;;8.88;4.70;;;;;;;5.89;65.58;98177.41;7684207;32;40842;-83
2023/01/19 01:30:03;;;;;;;6.80;4.72;;;;;;;5.67;65.75;98175.09;7683942;32;38583;-83
2023/01/19 01:34:19;;;;;;;8.05;4.00;;;;;;;5.61;65.85;98176.25;7670525;32;37111;-83
2023/01/19 01:38:35;;;;;;;7.53;3.83;;;;;;;5.62;65.80;98173.25;7682648;32;39475;-84
2023/01/19 01:42:52;;;;;;;5.45;3.97;;;;;;;5.52;65.47;98173.31;7683868;32;39685;-83
2023/01/19 01:47:08;;;;;;;5.05;3.67;;;;;;;5.41;65.04;98177.13;7683673;32;38726;-83
2023/01/19 01:51:27;;;;;;;3.42;3.10;;;;;;;5.02;66.41;98175.12;7669363;32;37821;-83
2023/01/19 01:55:48;;;;;;;6.03;3.60;;;;;;;5.29;65.04;98182.84;7683633;32;39238;-83
2023/01/19 02:00:06;;;;;;;5.78;3.78;;;;;;;5.34;64.77;98203.66;7902952;27;40746;-81
2023/01/19 02:04:22;;;;;;;4.55;3.12;;;;;;;5.43;64.72;98213.62;7669857;32;39489;-82
2023/01/19 02:13:27;;;;;;;4.95;3.08;;;;;;;5.46;64.36;98220.34;7683354;32;39304;-81
2023/01/19 02:17:43;;;;;;;3.28;2.92;;;;;;;5.38;63.91;98229.84;7683064;32;39956;-82
2023/01/19 02:22:26;;;;;;;3.40;2.75;;;;;;;5.22;64.96;98234.47;7669400;32;37866;-82
2023/01/19 02:26:45;;;;;;;4.32;3.10;;;;;;;5.57;63.60;98229.22;7675247;32;36963;-82
2023/01/19 02:31:02;;;;;;;3.40;2.60;;;;;;;5.40;64.07;98224.97;7669281;32;40068;-83
2023/01/19 02:35:19;;;;;;;3.22;2.97;;;;;;;5.43;63.69;98191.16;7682390;32;40876;-83
2023/01/19 02:40:01;;;;;;;5.18;2.62;;;;;;;5.28;64.04;98194.75;7682562;32;37879;-83
2023/01/19 02:44:19;;;;;;;3.15;2.60;;;;;;;5.54;63.29;98203.56;7682663;32;37001;-85
2023/01/19 02:48:36;;;;;;;2.78;2.55;;;;;;;5.19;64.27;98231.53;7668711;32;40054;-82
2023/01/19 02:52:54;;;;;;;5.00;3.40;;;;;;;5.47;63.73;98211.19;7685989;32;40100;-82
2023/01/19 02:57:28;;;;;;;2.80;2.50;;;;;;;5.22;65.47;98202.06;7672875;32;38316;-81
2023/01/19 03:02:11;;;;;;;2.90;2.60;;;;;;;5.26;65.28;98199.63;7685845;32;37121;-82
2023/01/19 03:06:45;;;;;;;3.95;2.85;;;;;;;5.37;64.26;98211.22;7673675;32;39371;-82
2023/01/19 03:11:03;;;;;;;2.92;2.62;;;;;;;5.67;63.14;98212.16;7685678;32;40824;-83
2023/01/19 03:15:40;;;;;;;2.95;2.60;;;;;;;5.55;63.46;98221.38;7685710;32;38574;-82
2023/01/19 03:19:56;;;;;;;3.33;2.83;;;;;;;5.53;63.60;98222.75;7673296;32;37984;-83
2023/01/19 03:24:14;;;;;;;3.40;2.95;;;;;;;5.30;63.98;98225.00;7672280;32;39015;-82
2023/01/19 03:28:32;;;;;;;3.42;3.12;;;;;;;4.60;65.15;98241.06;7685444;32;39652;-81
2023/01/19 03:33:03;;;;;;;4.82;3.20;;;;;;;5.05;63.91;98251.03;7672197;32;38700;-82
2023/01/19 03:37:21;;;;;;;3.20;2.90;;;;;;;4.82;64.54;98284.00;7673655;32;37070;-82
2023/01/19 03:41:39;;;;;;;3.92;3.35;;;;;;;4.97;63.82;98259.69;7685615;32;39311;-81
2023/01/19 03:45:56;;;;;;;4.18;3.30;;;;;;;4.77;64.69;98213.78;7685196;32;40551;-81
2023/01/19 03:50:20;;;;;;;3.60;3.30;;;;;;;4.99;64.28;98200.00;7671777;32;37909;-81
2023/01/19 03:54:37;;;;;;;4.20;2.87;;;;;;;4.96;64.20;98193.22;7672770;32;38326;-82
2023/01/19 03:58:53;;;;;;;3.92;3.28;;;;;;;4.95;63.87;98185.38;7684894;32;39452;-80
2023/01/19 04:03:16;;;;;;;5.68;3.30;;;;;;;4.77;64.26;98176.78;7699717;32;39405;-81
2023/01/19 04:07:33;;;;;;;5.43;3.20;;;;;;;4.44;65.13;98197.88;7711894;32;37939;-81
2023/01/19 04:11:49;;;;;;;3.83;3.20;;;;;;;4.93;63.20;98225.37;7700297;32;36962;-81
2023/01/19 04:16:06;;;;;;;4.90;3.60;;;;;;;3.94;66.94;98215.66;7684965;32;40047;-82
2023/01/19 04:20:22;;;;;;;3.87;3.20;;;;;;;4.02;66.47;98217.00;7671660;32;40211;-82
2023/01/19 04:24:38;;;;;;;5.18;3.47;;;;;;;3.31;68.02;98224.63;7685093;32;37788;-82
2023/01/19 04:28:54;;;;;;;5.18;3.47;;;;;;;3.62;67.53;98230.13;7684988;32;37848;-82
2023/01/19 04:33:11;;;;;;;4.18;2.97;;;;;;;3.70;66.74;98231.50;7684857;32;39163;-81
2023/01/19 04:37:27;;;;;;;3.60;3.30;;;;;;;3.84;66.21;98226.41;7696308;32;39955;-81
2023/01/19 04:41:43;;;;;;;4.50;3.28;;;;;;;4.14;65.22;98210.31;7684926;32;38549;-82
2023/01/19 04:46:00;;;;;;;3.55;3.00;;;;;;;4.15;65.46;98194.91;7684750;32;37035;-83
2023/01/19 04:50:16;;;;;;;3.92;3.00;;;;;;;3.94;66.32;98176.00;7684662;32;40046;-82
2023/01/19 04:54:32;;;;;;;3.17;2.80;;;;;;;3.96;66.85;98170.34;7684795;32;40771;-82
2023/01/19 04:58:49;;;;;;;3.40;3.10;;;;;;;4.19;66.44;98179.00;7684511;32;37589;-82
2023/01/19 05:03:05;;;;;;;3.22;2.92;;;;;;;4.18;66.11;98158.53;7684701;32;36955;-82
2023/01/19 05:07:21;;;;;;;2.95;2.75;;;;;;;3.96;66.92;98167.66;7684799;32;39254;-82
2023/01/19 05:11:38;;;;;;;3.35;3.05;;;;;;;4.14;66.56;98199.50;7684038;32;39994;-83
2023/01/19 05:15:54;;;;;;;3.97;3.15;;;;;;;4.31;66.42;98207.34;7684463;32;37889;-82
2023/01/19 05:20:11;;;;;;;4.20;3.47;;;;;;;4.23;67.01;98201.69;7684472;32;37863;-82
2023/01/19 05:24:31;;;;;;;5.28;4.20;;;;;;;4.33;66.99;98180.09;7684406;32;40032;-83
2023/01/19 05:28:49;;;;;;;4.15;3.60;;;;;;;4.45;66.89;98194.13;7684162;32;41617;-82
2023/01/19 05:33:05;;;;;;;5.15;3.80;;;;;;;4.59;66.79;98198.94;7684069;32;37898;-82
2023/01/19 05:37:21;;;;;;;5.68;3.85;;;;;;;4.57;66.78;98222.72;7684049;32;37062;-82
2023/01/19 05:41:38;;;;;;;6.00;4.18;;;;;;;4.54;66.33;98240.25;7683372;32;39365;-83
2023/01/19 05:45:54;;;;;;;5.28;4.05;;;;;;;4.36;67.57;98252.38;7683803;32;40049;-82
2023/01/19 05:50:10;;;;;;;5.80;4.10;;;;;;;4.44;68.01;98251.88;7683654;32;38659;-82
2023/01/19 05:54:28;;;;;;;6.07;3.90;;;;;;;4.54;67.85;98228.66;7683987;32;36870;-83
2023/01/19 05:58:44;;;;;;;5.93;3.97;;;;;;;4.72;67.28;98233.50;7683445;32;40199;-83
2023/01/19 06:03:00;;;;;;;5.82;4.28;;;;;;;4.43;68.29;98250.25;7683296;32;39897;-82
2023/01/19 06:07:18;;;;;;;7.45;4.68;;;;;;;4.36;68.70;98248.87;7669427;32;37829;-84
2023/01/19 06:11:34;;;;;;;9.25;5.00;;;;;;;4.58;68.08;98240.53;7682993;32;37238;-84
2023/01/19 06:15:57;;;;;;;8.13;5.03;;;;;;;4.74;67.74;98207.03;7683364;32;39374;-82
2023/01/19 06:20:13;;;;;;;8.32;4.72;;;;;;;4.81;67.45;98190.56;7683194;32;40884;-82
2023/01/19 06:24:29;;;;;;;10.90;5.32;;;;;;;4.75;67.93;98203.25;7670123;32;37901;-81
2023/01/19 06:28:47;;;;;;;8.25;5.15;;;;;;;4.78;67.38;98213.53;7686105;32;38057;-83
2023/01/19 06:33:03;;;;;;;8.90;5.35;;;;;;;4.96;66.83;98203.22;7686351;32;40180;-82
2023/01/19 06:37:20;;;;;;;8.93;5.68;;;;;;;5.02;66.68;98191.34;7685957;32;39880;-82
2023/01/19 06:41:37;;;;;;;8.40;5.28;;;;;;;4.71;67.43;98180.59;7686282;32;37853;-82
2023/01/19 06:45:54;;;;;;;9.23;5.50;;;;;;;4.97;66.85;98173.25;7685908;32;37173;-82
2023/01/19 06:50:11;;;;;;;9.25;5.40;;;;;;;5.10;66.40;98166.44;7672873;32;39054;-82
2023/01/19 06:54:27;;;;;;;8.38;5.75;;;;;;;4.98;66.79;98203.75;7686189;32;39903;-80
2023/01/19 06:58:45;;;;;;;10.80;6.28;;;;;;;5.06;66.64;98227.50;7685835;32;37803;-82
2023/01/19 07:03:02;;;;;;;10.35;5.90;;;;;;;4.69;68.17;98223.25;7686275;32;37867;-83
2023/01/19 07:07:18;;;;;;;10.32;6.50;;;;;;;5.00;67.42;98236.69;7685805;32;39279;-84
2023/01/19 07:11:35;;;;;;;15.15;6.57;;;;;;;4.73;68.66;98227.03;7671166;32;39828;-86
2023/01/19 07:15:51;;;;;;;10.98;6.53;;;;;;;4.92;68.39;98202.16;7685349;32;37791;-87
2023/01/19 07:20:11;;;;;;;11.85;6.93;;;;;;;4.97;68.09;98196.75;7685648;32;37023;-88
2023/01/19 07:24:29;;;;;;;14.63;8.18;;;;;;;5.21;67.51;98199.66;7685940;32;40979;-86
2023/01/19 07:28:48;;;;;;;13.52;7.60;;;;;;;5.33;67.02;98197.44;7685696;32;40733;-86
2023/01/19 07:33:04;;;;;;;13.73;8.13;;;;;;;5.32;67.07;98205.81;7685639;32;37781;-86
2023/01/19 07:37:21;;;;;;;16.10;9.07;;;;;;;5.26;67.72;98213.94;7684324;32;36932;-86
2023/01/19 07:41:37;;;;;;;19.95;10.10;;;;;;;5.23;67.83;98246.91;7684889;32;39377;-84
2023/01/19 07:46:00;;;;;;;15.07;8.38;;;;;;;4.96;68.57;98225.63;7667440;32;40891;-82
2023/01/19 07:50:20;;;;;;;18.37;8.88;;;;;;;5.15;68.73;98242.06;7684544;32;37625;-74
2023/01/19 07:54:36;;;;;;;16.17;8.55;;;;;;;5.50;68.99;98245.75;7677118;32;37966;-73
2023/01/19 07:58:53;;;;;;;15.68;8.88;;;;;;;5.53;67.91;98233.56;7684603;32;39920;-84
2023/01/19 08:03:09;;;;;;;13.82;8.02;;;;;;;5.51;67.99;98236.56;7671484;32;40803;-84
2023/01/19 08:07:25;;;;;;;16.35;9.05;;;;;;;5.63;66.96;98245.16;7684903;32;37754;-86
2023/01/19 08:11:42;;;;;;;16.92;9.23;;;;;;;5.68;66.53;98240.81;7670657;32;36742;-85
2023/01/19 08:15:58;;;;;;;16.17;9.02;;;;;;;5.71;66.65;98242.94;7671438;32;40194;-85
2023/01/19 08:20:15;;;;;;;16.90;9.20;;;;;;;5.46;67.68;98233.88;7683763;32;40279;-85
2023/01/19 08:24:31;;;;;;;13.93;8.23;;;;;;;5.97;65.87;98233.66;7684476;32;38427;-86
2023/01/19 08:28:47;;;;;;;13.43;7.90;;;;;;;5.90;66.55;98243.97;7684929;32;37426;-84
2023/01/19 08:33:06;;;;;;;14.35;8.38;;;;;;;5.61;66.70;98239.22;7671169;32;39555;-83
2023/01/19 08:37:23;;;;;;;17.05;8.77;;;;;;;5.64;66.94;98233.25;7671477;32;40654;-84
2023/01/19 08:41:40;;;;;;;17.02;9.60;;;;;;;5.81;66.52;98229.38;7684520;32;37798;-83
2023/01/19 08:45:56;;;;;;;15.95;9.02;;;;;;;5.69;66.99;98228.91;7671114;32;37922;-84
2023/01/19 08:50:12;;;;;;;14.77;8.50;;;;;;;5.53;67.62;98231.69;7684172;32;39286;-85
2023/01/19 08:54:29;;;;;;;12.95;7.90;;;;;;;5.71;67.28;98218.63;7670935;32;40585;-82
2023/01/19 08:58:45;;;;;;;15.57;8.48;;;;;;;5.71;66.88;98218.63;7684317;32;37610;-83
2023/01/19 09:03:20;;;;;;;15.27;8.50;;;;;;;5.50;67.77;98234.94;7658491;32;35645;-83
2023/01/19 09:07:37;;;;;;;14.20;8.48;;;;;;;5.71;67.40;98237.53;7658589;32;40170;-86
2023/01/19 09:11:54;;;;;;;14.60;8.13;;;;;;;5.89;66.87;98244.22;7657774;32;40598;-85
2023/01/19 09:16:12;;;;;;;13.73;8.32;;;;;;;5.95;66.39;98234.97;7654157;32;38589;-84
2023/01/19 09:20:30;;;;;;;15.27;8.05;;;;;;;6.05;66.42;98228.75;7666980;32;38367;-84
2023/01/19 09:24:46;;;;;;;14.60;8.38;;;;;;;5.94;66.82;98226.06;7683922;32;39434;-83
2023/01/19 09:29:04;;;;;;;14.50;7.53;;;;;;;5.74;67.56;98224.28;7683573;32;40855;-86
2023/01/19 09:33:23;;;;;;;13.23;7.68;;;;;;;5.75;67.43;98231.31;7683614;32;37824;-85
2023/01/19 09:37:39;;;;;;;11.60;6.90;;;;;;;5.89;67.35;98247.72;7665600;32;36960;-85
2023/01/19 09:42:24;;;;;;;12.35;7.03;;;;;;;6.08;66.72;98230.91;7657707;32;40164;-84
2023/01/19 09:46:41;;;;;;;13.77;8.30;;;;;;;5.41;68.79;98236.59;7647056;32;40616;-82
2023/01/19 09:51:03;;;;;;;14.80;8.52;;;;;;;5.49;68.62;98227.13;7648312;32;37835;-81
2023/01/19 09:55:24;;;;;;;11.82;7.35;;;;;;;5.71;70.85;98224.84;7634033;32;38680;-81
2023/01/19 09:59:46;;;;;;;11.67;7.03;;;;;;;5.73;69.56;98232.69;7661573;32;40030;-81
2023/01/19 10:04:27;;;;;;;13.57;7.37;;;;;;;5.58;69.12;98247.87;7669092;32;39866;-81
2023/01/19 10:09:04;;;;;;;12.25;7.32;;;;;;;5.48;69.30;98230.91;7681480;32;38396;-81
2023/01/19 10:13:43;;;;;;;12.75;7.22;;;;;;;5.69;68.29;98212.69;7667152;32;37887;-81
2023/01/19 10:18:46;;;;;;;11.90;7.65;;;;;;;5.73;67.98;98216.47;7678894;32;39439;-79
2023/01/19 10:23:15;;;;;;;11.80;7.07;;;;;;;5.88;67.46;98213.69;7660386;32;40662;-80
2023/01/19 10:27:34;;;;;;;13.07;7.50;;;;;;;5.47;68.29;98230.09;7669324;32;38388;-84
2023/01/19 10:32:13;;;;;;;13.45;7.80;;;;;;;5.36;68.90;98225.78;7668504;32;37117;-80
2023/01/19 10:36:36;;;;;;;11.48;7.00;;;;;;;5.42;69.11;98227.41;7667001;32;39308;-84
2023/01/19 10:40:53;;;;;;;11.27;7.03;;;;;;;5.31;69.56;98228.53;7665183;32;41104;-83
2023/01/19 10:45:20;;;;;;;12.18;6.80;;;;;;;5.43;69.17;98234.41;7677713;32;38447;-83
2023/01/19 10:49:41;;;;;;;11.98;6.90;;;;;;;5.46;68.72;98229.25;7680488;32;37117;-86
2023/01/19 10:54:00;;;;;;;12.32;6.90;;;;;;;5.45;68.51;98237.69;7667985;32;39355;-83
2023/01/19 10:58:29;;;;;;;10.23;5.80;;;;;;;5.65;68.27;98242.16;7682484;32;39754;-84
2023/01/19 11:02:50;;;;;;;12.57;7.10;;;;;;;5.81;68.04;98230.22;7656067;32;37870;-83
2023/01/19 11:07:28;;;;;;;12.23;6.87;;;;;;;6.06;67.87;98242.00;7642262;32;37074;-81
2023/01/19 11:11:51;;;;;;;12.65;6.10;;;;;;;5.88;68.15;98245.31;7644484;32;40045;-83
2023/01/19 11:16:27;;;;;;;10.15;6.35;;;;;;;5.80;67.69;98242.09;7637955;32;39450;-81
2023/01/19 11:20:51;;;;;;;9.70;6.00;;;;;;;5.74;69.93;98239.69;7658472;32;37884;-81
2023/01/19 11:25:19;;;;;;;;;;;;;;;5.60;69.50;98251.09;7658117;32;37750;-81
2023/01/19 11:29:35;;;;;;;11.02;5.70;;;;;;;5.94;67.28;98250.41;7655954;32;39964;-81
2023/01/19 11:33:59;;;;;;;10.45;6.03;;;;;;;5.29;69.62;98257.72;7644569;32;39870;-81
2023/01/19 11:38:19;;;;;;;9.68;5.68;;;;;;;5.86;67.84;98258.31;7657572;32;37915;-81
2023/01/19 11:42:37;;;;;;;11.23;5.62;;;;;;;5.85;67.60;98260.22;7668843;32;37221;-82
2023/01/19 11:46:58;;;;;;;8.52;4.78;;;;;;;5.69;68.57;98255.94;7658176;32;39348;-80
2023/01/19 11:51:18;;;;;;;5.97;4.50;;;;;;;5.65;68.45;98258.41;7668586;32;39862;-81
2023/01/19 11:55:49;;;;;;;7.57;4.40;;;;;;;5.43;69.13;98264.16;7644765;32;37646;-82
2023/01/19 12:00:21;;;;;;;7.50;4.85;;;;;;;5.67;68.98;98255.41;7669381;32;37155;-81
2023/01/19 12:04:39;;;;;;;9.20;5.50;;;;;;;6.15;67.71;98263.84;7672660;32;39859;-82
2023/01/19 12:09:24;;;;;;;9.57;6.65;;;;;;;5.93;68.09;98270.44;7672306;32;39903;-80
2023/01/19 12:13:44;;;;;;;12.95;7.20;;;;;;;5.98;67.60;98270.44;7674722;32;37503;-82
2023/01/19 12:18:01;;;;;;;14.60;7.32;;;;;;;5.26;69.54;98269.91;7669748;32;37159;-82
2023/01/19 12:22:19;;;;;;;13.70;7.50;;;;;;;5.72;68.21;98277.03;7684484;32;38242;-81
2023/01/19 12:26:47;;;;;;;13.73;9.02;;;;;;;5.17;70.18;98279.63;7683767;32;40005;-82
2023/01/19 12:31:04;;;;;;;16.85;9.13;;;;;;;5.21;69.41;98297.72;7680577;32;37520;-83
2023/01/19 12:36:01;;;;;;;15.95;9.52;;;;;;;5.14;70.19;98299.91;7681121;32;36595;-83
2023/01/19 12:40:30;;;;;;;15.77;9.55;;;;;;;5.36;69.28;98298.75;7682767;32;38384;-82
2023/01/19 12:44:46;;;;;;;15.02;9.20;;;;;;;5.39;69.09;98299.03;7671058;32;40049;-82
2023/01/19 12:49:09;;;;;;;15.77;10.00;;;;;;;5.20;69.89;98300.69;7685105;32;37582;-82
2023/01/19 12:53:26;;;;;;;18.92;9.38;;;;;;;5.29;70.30;98309.06;7671783;32;37244;-83
2023/01/19 12:57:59;;;;;;;16.80;9.40;;;;;;;5.60;68.95;98318.69;7684970;32;40258;-82
2023/01/19 13:02:25;;;;;;;13.38;8.32;;;;;;;5.29;69.20;98323.38;7684599;32;40636;-82
2023/01/19 13:06:47;;;;;;;14.70;8.18;;;;;;;4.55;71.60;98332.84;7684942;32;37862;-82
2023/01/19 13:11:09;;;;;;;14.07;7.87;;;;;;;5.17;70.72;98334.47;7684770;32;36956;-82
2023/01/19 13:15:35;;;;;;;13.25;7.28;;;;;;;4.70;71.76;98336.34;7684884;32;39949;-82
2023/01/19 13:20:02;;;;;;;12.52;7.12;;;;;;;4.97;71.57;98346.09;7684592;32;40786;-82
2023/01/19 13:24:22;;;;;;;9.93;6.25;;;;;;;4.36;73.73;98351.41;7671570;32;37953;-82
2023/01/19 13:28:48;;;;;;;11.95;6.43;;;;;;;4.77;71.97;98356.91;7684479;32;37113;-82
2023/01/19 13:33:21;;;;;;;10.63;6.60;;;;;;;4.37;73.36;98375.44;7684400;32;39023;-82
2023/01/19 13:37:40;;;;;;;11.55;6.72;;;;;;;4.24;73.13;98376.75;7671506;32;40751;-82
2023/01/19 13:42:14;;;;;;;12.25;8.13;;;;;;;4.73;72.61;98389.03;7671103;32;38562;-82
2023/01/19 13:46:32;;;;;;;17.83;9.73;;;;;;;3.97;74.96;98398.50;7672110;32;37782;-82
2023/01/19 13:51:03;;;;;;;18.87;10.35;;;;;;;4.57;73.93;98400.84;7670685;32;39352;-82
2023/01/19 13:55:22;;;;;;;23.27;12.07;;;;;;;4.82;72.75;98413.59;7683942;32;39728;-82
2023/01/19 13:59:39;;;;;;;18.20;10.32;;;;;;;4.56;73.04;98426.25;7669677;32;37681;-83
2023/01/19 14:03:55;;;;;;;20.48;12.73;;;;;;;4.29;73.45;98429.91;7670101;32;37996;-83
2023/01/19 14:08:13;;;;;;;21.33;13.65;;;;;;;3.52;75.67;98451.06;7683608;32;39476;-81
2023/01/19 14:12:33;;;;;;;25.88;13.77;;;;;;;3.19;78.02;98458.31;7683466;32;40348;-83
2023/01/19 14:16:56;;;;;;;26.58;15.88;;;;;;;3.48;76.66;98468.81;7671116;32;38664;-83
2023/01/19 14:21:14;;;;;;;30.15;15.77;;;;;;;3.56;75.57;98471.81;7683336;32;36982;-82
2023/01/19 14:25:38;;;;;;;31.33;17.50;;;;;;;3.23;76.96;98475.63;7683307;32;39428;-83
2023/01/19 14:30:12;;;;;;;29.33;15.82;;;;;;;3.47;75.03;98480.66;7683133;32;39945;-84
2023/01/19 14:34:31;;;;;;;27.52;15.88;;;;;;;3.69;74.61;98478.69;7671105;32;37624;-82
2023/01/19 14:38:48;;;;;;;32.53;18.30;;;;;;;3.47;74.78;98481.47;7683010;32;36273;-84
2023/01/19 14:43:09;;;;;;;31.95;18.12;;;;;;;3.81;74.02;98480.34;7669500;32;39134;-86
2023/01/19 14:47:45;;;;;;;31.23;17.62;;;;;;;3.98;72.53;98470.22;7684908;32;39928;-84
2023/01/19 14:52:17;;;;;;;38.20;19.23;;;;;;;4.20;72.19;98480.06;7680107;32;38700;-87
2023/01/19 14:56:36;;;;;;;29.83;16.55;;;;;;;4.13;71.50;98483.78;7673044;32;37347;-85
2023/01/19 15:00:54;;;;;;;32.65;18.90;;;;;;;3.61;72.78;98502.59;7684579;32;39389;-86
2023/01/19 15:05:14;;;;;;;34.42;17.70;;;;;;;3.46;73.62;98522.94;7672528;32;39906;-86
2023/01/19 15:09:30;;;;;;;28.10;15.55;;;;;;;3.39;73.04;98519.66;7685981;32;38021;-86
2023/01/19 15:13:47;;;;;;;31.42;16.98;;;;;;;3.12;73.49;98522.34;7685014;32;37792;-85
2023/01/19 15:18:11;;;;;;;25.33;15.27;;;;;;;2.94;75.35;98532.41;7672824;32;39401;-87
2023/01/19 15:22:28;;;;;;;28.98;15.50;;;;;;;3.41;73.72;98519.41;7671980;32;40059;-85
2023/01/19 15:26:45;;;;;;;25.35;13.70;;;;;;;3.59;72.06;98532.50;7685547;32;38480;-85
2023/01/19 15:31:02;;;;;;;23.90;14.85;;;;;;;3.37;72.71;98541.47;7671885;32;37972;-85
2023/01/19 15:35:22;;;;;;;27.40;14.98;;;;;;;3.47;72.60;98542.63;7685052;32;40137;-86
2023/01/19 15:39:41;;;;;;;27.48;14.70;;;;;;;2.99;74.36;98540.53;7685808;32;40914;-86
2023/01/19 15:43:58;;;;;;;25.98;14.57;;;;;;;2.68;75.01;98552.03;7684688;32;38443;-85
2023/01/19 15:48:18;;;;;;;25.15;14.82;;;;;;;3.16;73.85;98567.37;7685707;32;37406;-86
2023/01/19 15:52:35;;;;;;;24.67;14.40;;;;;;;3.36;72.82;98576.72;7684724;32;38682;-85
2023/01/19 15:56:51;;;;;;;23.83;14.48;;;;;;;2.91;74.36;98594.03;7684229;32;40775;-84
2023/01/19 16:01:12;;;;;;;30.92;15.32;;;;;;;2.96;74.07;98591.37;7684997;32;38706;-88
2023/01/19 16:05:29;;;;;;;27.83;15.15;;;;;;;3.49;72.69;98570.94;7671363;32;38349;-87
2023/01/19 16:09:57;;;;;;;33.20;17.45;;;;;;;3.71;71.82;98581.66;7673283;32;39468;-85
2023/01/19 16:14:14;;;;;;;29.02;16.02;;;;;;;2.70;75.03;98601.03;7684725;32;39948;-85
2023/01/19 16:18:32;;;;;;;30.27;15.75;;;;;;;3.04;74.05;98599.03;7686563;32;38243;-83
2023/01/19 16:22:51;;;;;;;27.23;14.98;;;;;;;2.34;76.02;98608.59;7685390;32;36721;-85
2023/01/19 16:27:11;;;;;;;29.85;15.63;;;;;;;3.03;74.24;98620.81;7684610;32;39830;-85
2023/01/19 16:31:27;;;;;;;26.75;13.88;;;;;;;2.79;74.47;98637.22;7671233;32;39895;-85
2023/01/19 16:35:44;;;;;;;23.08;13.62;;;;;;;2.70;75.09;98636.81;7684429;32;38788;-86
2023/01/19 16:40:01;;;;;;;22.75;13.75;;;;;;;2.58;75.09;98645.00;7684913;32;37955;-85
2023/01/19 16:44:18;;;;;;;25.62;13.57;;;;;;;2.85;74.09;98657.75;7684066;32;40006;-85
2023/01/19 16:48:35;;;;;;;21.92;13.13;;;;;;;2.99;73.44;98658.22;7683413;32;40640;-84
2023/01/19 16:52:56;;;;;;;22.42;12.75;;;;;;;2.49;74.86;98694.91;7669384;32;38502;-85
2023/01/19 16:57:17;;;;;;;18.20;9.48;;;;;;;2.25;75.40;98708.53;7668146;32;37625;-85
2023/01/19 17:01:33;;;;;;;20.88;10.93;;;;;;;2.58;73.69;98739.19;7670290;32;40060;-84
2023/01/19 17:05:50;;;;;;;23.87;13.32;;;;;;;2.11;75.72;98738.69;7684091;32;40009;-86
2023/01/19 17:10:07;;;;;;;23.02;13.07;;;;;;;2.15;76.33;98740.62;7670652;32;38087;-83
2023/01/19 17:14:24;;;;;;;23.15;13.00;;;;;;;1.98;76.09;98745.97;7684241;32;37942;-84
2023/01/19 17:18:41;;;;;;;22.27;13.82;;;;;;;2.71;73.70;98754.19;7683907;32;39154;-83
2023/01/19 17:22:57;;;;;;;25.05;13.62;;;;;;;2.37;74.70;98753.38;7684221;32;40751;-83
2023/01/19 17:27:15;;;;;;;21.05;12.37;;;;;;;1.58;77.32;98772.88;7683624;32;38778;-84
2023/01/19 17:31:34;;;;;;;21.77;12.48;;;;;;;1.93;77.74;98775.44;7670595;32;37748;-84
2023/01/19 17:35:51;;;;;;;20.88;12.60;;;;;;;2.27;75.62;98785.47;7657688;32;39350;-82
2023/01/19 17:40:08;;;;;;;23.87;13.27;;;;;;;2.18;76.14;98791.22;7670263;32;39945;-84
2023/01/19 17:44:25;;;;;;;26.45;14.57;;;;;;;1.77;77.02;98790.47;7683748;32;38711;-84
2023/01/19 17:48:41;;;;;;;26.80;14.93;;;;;;;2.49;74.90;98791.78;7683318;32;36989;-84
2023/01/19 17:52:58;;;;;;;27.13;14.80;;;;;;;2.56;74.39;98797.00;7683599;32;39424;-85
2023/01/19 17:57:15;;;;;;;29.37;15.70;;;;;;;2.56;75.30;98795.13;7683097;32;41254;-84
2023/01/19 18:01:32;;;;;;;29.63;15.45;;;;;;;3.34;72.03;98789.81;7683303;32;37832;-84
2023/01/19 18:05:54;;;;;;;22.48;14.25;;;;;;;2.76;73.47;98783.03;7670183;32;37190;-84
2023/01/19 18:10:11;;;;;;;27.35;14.10;;;;;;;3.00;72.32;98781.81;7669358;32;39939;-84
2023/01/19 18:14:28;;;;;;;22.73;12.68;;;;;;;3.12;71.79;98797.03;7669639;32;40038;-84
2023/01/19 18:18:45;;;;;;;24.63;13.93;;;;;;;2.79;72.42;98796.84;7669115;32;37622;-84
2023/01/19 18:23:01;;;;;;;19.83;12.23;;;;;;;2.81;72.35;98801.97;7673438;32;37745;-84
2023/01/19 18:27:19;;;;;;;23.95;13.75;;;;;;;2.42;73.80;98807.25;7688853;32;40232;-82
2023/01/19 18:31:36;;;;;;;21.80;12.23;;;;;;;2.95;72.41;98816.75;7674388;32;39709;-88
2023/01/19 18:35:52;;;;;;;24.92;12.25;;;;;;;2.67;73.16;98823.00;7686213;32;38715;-86
2023/01/19 18:40:09;;;;;;;22.75;13.93;;;;;;;2.89;72.26;98831.19;7686516;32;37350;-85
2023/01/19 18:44:26;;;;;;;22.92;12.57;;;;;;;2.72;73.01;98830.34;7671328;32;40167;-86
2023/01/19 18:48:43;;;;;;;23.33;12.75;;;;;;;2.67;73.12;98827.59;7686286;32;39911;-85
2023/01/19 18:52:59;;;;;;;22.62;13.13;;;;;;;2.95;71.47;98832.91;7686251;32;37923;-86
2023/01/19 18:57:16;;;;;;;23.40;12.82;;;;;;;2.66;71.73;98825.94;7672464;32;37192;-86
2023/01/19 19:01:34;;;;;;;27.92;15.57;;;;;;;1.95;75.11;98831.66;7706317;32;40471;-85
2023/01/19 19:05:50;;;;;;;22.80;14.05;;;;;;;1.79;76.36;98836.72;7685545;32;39900;-86
2023/01/19 19:10:08;;;;;;;19.30;12.00;;;;;;;2.37;73.49;98836.75;7672940;32;37854;-85
2023/01/19 19:14:24;;;;;;;24.15;13.65;;;;;;;2.48;73.48;98835.87;7685959;32;37206;-86
2023/01/19 19:18:41;;;;;;;24.27;14.40;;;;;;;2.56;72.56;98846.25;7685972;32;39975;-87
2023/01/19 19:22:57;;;;;;;22.10;12.55;;;;;;;2.53;72.96;98857.47;7685826;32;38684;-86
2023/01/19 19:27:13;;;;;;;23.50;13.65;;;;;;;2.61;72.32;98862.47;7684239;32;36776;-82
2023/01/19 19:31:30;;;;;;;24.17;12.75;;;;;;;2.40;72.63;98866.69;7684653;32;37971;-84
2023/01/19 19:35:46;;;;;;;21.85;13.18;;;;;;;2.77;71.42;98860.84;7684897;32;39399;-82
2023/01/19 19:40:03;;;;;;;21.17;11.70;;;;;;;2.84;71.98;98871.47;7685000;32;40573;-83
2023/01/19 19:44:19;;;;;;;22.02;13.32;;;;;;;2.46;73.25;98877.53;7685171;32;37904;-85
2023/01/19 19:48:36;;;;;;;21.35;12.68;;;;;;;2.37;72.87;98888.69;7684693;32;38123;-85
2023/01/19 19:52:57;;;;;;;22.92;13.65;;;;;;;2.51;73.08;98894.59;7685585;32;39591;-86
2023/01/19 19:57:13;;;;;;;24.33;14.87;;;;;;;2.07;73.93;98910.44;7685624;32;40754;-85
2023/01/19 20:01:31;;;;;;;23.98;13.40;;;;;;;2.37;73.36;98904.00;7671189;32;37877;-88
2023/01/19 20:05:48;;;;;;;23.15;13.62;;;;;;;2.61;72.91;98907.41;7672049;32;37930;-83
2023/01/19 20:10:06;;;;;;;23.92;14.18;;;;;;;2.54;72.86;98915.62;7671261;32;39926;-86
2023/01/19 20:14:23;;;;;;;21.87;12.75;;;;;;;2.32;73.33;98912.78;7684022;32;40002;-85
2023/01/19 20:18:41;;;;;;;21.05;12.43;;;;;;;2.60;72.54;98914.69;7684132;32;37822;-85
2023/01/19 20:22:59;;;;;;;23.55;12.52;;;;;;;2.55;71.86;98919.13;7684123;32;37170;-86
2023/01/19 20:27:15;;;;;;;24.92;13.50;;;;;;;2.36;72.95;98926.56;7683964;32;39095;-86
2023/01/19 20:31:34;;;;;;;24.60;13.40;;;;;;;2.40;73.38;98927.75;7683851;32;39861;-87